sensor_id;sensor_type;location;lat;lon;timestamp;P1;durP1;ratioP1;P2;durP2;ratioP2
22881;SDS011;11608;50.894;5.296;2023-09-30T00:00:43;28.73;;;26.13;;
22881;SDS011;11608;50.894;5.296;2023-09-30T00:03:09;28.42;;;25.80;;
22881;SDS011;11608;50.894;5.296;2023-09-30T00:05:35;28.85;;;26.25;;
22881;SDS011;11608;50.894;5.296;2023-09-30T00:08:02;29.58;;;27.00;;
22881;SDS011;11608;50.894;5.296;2023-09-30T00:10:28;29.23;;;26.83;;
22881;SDS011;11608;50.894;5.296;2023-09-30T00:12:55;27.98;;;25.63;;
22881;SDS011;11608;50.894;5.296;2023-09-30T00:15:21;27.73;;;25.33;;
22881;SDS011;11608;50.894;5.296;2023-09-30T00:17:47;28.00;;;25.80;;
22881;SDS011;11608;50.894;5.296;2023-09-30T00:20:13;27.85;;;25.73;;
22881;SDS011;11608;50.894;5.296;2023-09-30T00:22:40;28.17;;;25.88;;
22881;SDS011;11608;50.894;5.296;2023-09-30T00:25:06;28.58;;;26.27;;
22881;SDS011;11608;50.894;5.296;2023-09-30T00:27:32;27.90;;;25.35;;
22881;SDS011;11608;50.894;5.296;2023-09-30T00:29:58;26.73;;;24.35;;
22881;SDS011;11608;50.894;5.296;2023-09-30T00:32:24;26.85;;;24.75;;
22881;SDS011;11608;50.894;5.296;2023-09-30T00:34:50;27.70;;;25.38;;
22881;SDS011;11608;50.894;5.296;2023-09-30T00:37:17;28.73;;;26.00;;
22881;SDS011;11608;50.894;5.296;2023-09-30T00:39:43;29.65;;;26.88;;
22881;SDS011;11608;50.894;5.296;2023-09-30T00:42:10;28.15;;;25.75;;
22881;SDS011;11608;50.894;5.296;2023-09-30T00:44:36;27.77;;;25.58;;
22881;SDS011;11608;50.894;5.296;2023-09-30T00:47:02;29.02;;;26.50;;
22881;SDS011;11608;50.894;5.296;2023-09-30T00:49:28;28.92;;;26.42;;
22881;SDS011;11608;50.894;5.296;2023-09-30T00:51:54;28.98;;;26.52;;
22881;SDS011;11608;50.894;5.296;2023-09-30T00:54:22;29.33;;;26.75;;
22881;SDS011;11608;50.894;5.296;2023-09-30T00:56:49;28.50;;;26.02;;
22881;SDS011;11608;50.894;5.296;2023-09-30T00:59:16;28.30;;;25.77;;
22881;SDS011;11608;50.894;5.296;2023-09-30T01:01:42;28.90;;;26.35;;
22881;SDS011;11608;50.894;5.296;2023-09-30T01:04:10;28.48;;;26.25;;
22881;SDS011;11608;50.894;5.296;2023-09-30T01:06:36;27.73;;;25.60;;
22881;SDS011;11608;50.894;5.296;2023-09-30T01:09:03;28.75;;;26.25;;
22881;SDS011;11608;50.894;5.296;2023-09-30T01:11:29;28.85;;;26.50;;
22881;SDS011;11608;50.894;5.296;2023-09-30T01:13:55;30.02;;;27.42;;
22881;SDS011;11608;50.894;5.296;2023-09-30T01:16:22;29.10;;;26.58;;
22881;SDS011;11608;50.894;5.296;2023-09-30T01:18:48;29.10;;;26.63;;
22881;SDS011;11608;50.894;5.296;2023-09-30T01:21:14;28.95;;;26.45;;
22881;SDS011;11608;50.894;5.296;2023-09-30T01:23:40;29.05;;;26.55;;
22881;SDS011;11608;50.894;5.296;2023-09-30T01:26:09;29.30;;;26.90;;
22881;SDS011;11608;50.894;5.296;2023-09-30T01:28:37;28.52;;;26.33;;
22881;SDS011;11608;50.894;5.296;2023-09-30T01:31:03;27.85;;;25.33;;
22881;SDS011;11608;50.894;5.296;2023-09-30T01:33:29;28.27;;;25.90;;
22881;SDS011;11608;50.894;5.296;2023-09-30T01:35:56;28.08;;;25.58;;
22881;SDS011;11608;50.894;5.296;2023-09-30T01:38:22;28.10;;;25.65;;
22881;SDS011;11608;50.894;5.296;2023-09-30T01:40:48;28.38;;;25.83;;
22881;SDS011;11608;50.894;5.296;2023-09-30T01:43:14;29.13;;;26.63;;
22881;SDS011;11608;50.894;5.296;2023-09-30T01:45:41;27.67;;;25.10;;
22881;SDS011;11608;50.894;5.296;2023-09-30T01:48:07;27.27;;;25.17;;
22881;SDS011;11608;50.894;5.296;2023-09-30T01:50:35;29.70;;;26.42;;
22881;SDS011;11608;50.894;5.296;2023-09-30T01:53:02;27.55;;;25.25;;
22881;SDS011;11608;50.894;5.296;2023-09-30T01:55:28;27.83;;;25.63;;
22881;SDS011;11608;50.894;5.296;2023-09-30T01:57:54;28.35;;;25.83;;
22881;SDS011;11608;50.894;5.296;2023-09-30T02:00:20;28.60;;;25.98;;
22881;SDS011;11608;50.894;5.296;2023-09-30T02:02:46;27.80;;;25.38;;
22881;SDS011;11608;50.894;5.296;2023-09-30T02:05:12;27.63;;;25.05;;
22881;SDS011;11608;50.894;5.296;2023-09-30T02:07:38;26.85;;;24.65;;
22881;SDS011;11608;50.894;5.296;2023-09-30T02:10:04;27.65;;;25.23;;
22881;SDS011;11608;50.894;5.296;2023-09-30T02:12:31;27.17;;;24.85;;
22881;SDS011;11608;50.894;5.296;2023-09-30T02:14:58;26.55;;;24.52;;
22881;SDS011;11608;50.894;5.296;2023-09-30T02:17:24;27.52;;;24.98;;
22881;SDS011;11608;50.894;5.296;2023-09-30T02:19:50;27.52;;;25.20;;
22881;SDS011;11608;50.894;5.296;2023-09-30T02:22:16;28.45;;;25.95;;
22881;SDS011;11608;50.894;5.296;2023-09-30T02:24:42;28.40;;;25.98;;
22881;SDS011;11608;50.894;5.296;2023-09-30T02:27:08;26.25;;;24.00;;
22881;SDS011;11608;50.894;5.296;2023-09-30T02:29:34;26.77;;;24.77;;
22881;SDS011;11608;50.894;5.296;2023-09-30T02:32:00;27.73;;;25.35;;
22881;SDS011;11608;50.894;5.296;2023-09-30T02:34:26;26.63;;;24.73;;
22881;SDS011;11608;50.894;5.296;2023-09-30T02:36:53;26.80;;;24.60;;
22881;SDS011;11608;50.894;5.296;2023-09-30T02:39:20;26.75;;;24.42;;
22881;SDS011;11608;50.894;5.296;2023-09-30T02:41:46;26.88;;;24.88;;
22881;SDS011;11608;50.894;5.296;2023-09-30T02:44:15;27.60;;;25.40;;
22881;SDS011;11608;50.894;5.296;2023-09-30T02:46:41;26.13;;;23.98;;
22881;SDS011;11608;50.894;5.296;2023-09-30T02:49:07;29.38;;;26.77;;
22881;SDS011;11608;50.894;5.296;2023-09-30T02:51:33;30.52;;;27.63;;
22881;SDS011;11608;50.894;5.296;2023-09-30T02:53:59;29.83;;;27.27;;
22881;SDS011;11608;50.894;5.296;2023-09-30T02:56:25;30.20;;;27.55;;
22881;SDS011;11608;50.894;5.296;2023-09-30T02:58:53;31.85;;;28.83;;
22881;SDS011;11608;50.894;5.296;2023-09-30T03:01:20;31.75;;;28.90;;
22881;SDS011;11608;50.894;5.296;2023-09-30T03:03:46;29.85;;;27.48;;
22881;SDS011;11608;50.894;5.296;2023-09-30T03:06:12;28.60;;;25.95;;
22881;SDS011;11608;50.894;5.296;2023-09-30T03:08:39;28.45;;;26.02;;
22881;SDS011;11608;50.894;5.296;2023-09-30T03:11:06;28.52;;;25.92;;
22881;SDS011;11608;50.894;5.296;2023-09-30T03:13:32;28.20;;;25.80;;
22881;SDS011;11608;50.894;5.296;2023-09-30T03:15:59;28.90;;;26.17;;
22881;SDS011;11608;50.894;5.296;2023-09-30T03:18:26;28.92;;;26.33;;
22881;SDS011;11608;50.894;5.296;2023-09-30T03:21:01;28.70;;;26.50;;
22881;SDS011;11608;50.894;5.296;2023-09-30T03:23:33;28.20;;;25.67;;
22881;SDS011;11608;50.894;5.296;2023-09-30T03:26:00;27.73;;;25.23;;
22881;SDS011;11608;50.894;5.296;2023-09-30T03:28:26;27.83;;;25.52;;
22881;SDS011;11608;50.894;5.296;2023-09-30T03:30:52;29.15;;;26.15;;
22881;SDS011;11608;50.894;5.296;2023-09-30T03:33:18;29.13;;;26.50;;
22881;SDS011;11608;50.894;5.296;2023-09-30T03:35:44;29.20;;;26.45;;
22881;SDS011;11608;50.894;5.296;2023-09-30T03:38:11;27.30;;;25.02;;
22881;SDS011;11608;50.894;5.296;2023-09-30T03:40:38;29.13;;;26.15;;
22881;SDS011;11608;50.894;5.296;2023-09-30T03:43:04;27.60;;;25.40;;
22881;SDS011;11608;50.894;5.296;2023-09-30T03:45:33;28.73;;;26.05;;
22881;SDS011;11608;50.894;5.296;2023-09-30T03:48:00;27.85;;;25.45;;
22881;SDS011;11608;50.894;5.296;2023-09-30T03:50:27;27.63;;;25.23;;
22881;SDS011;11608;50.894;5.296;2023-09-30T03:53:00;27.70;;;24.95;;
22881;SDS011;11608;50.894;5.296;2023-09-30T03:55:26;28.58;;;26.08;;
22881;SDS011;11608;50.894;5.296;2023-09-30T03:57:54;29.13;;;26.52;;
22881;SDS011;11608;50.894;5.296;2023-09-30T04:00:20;33.33;;;29.83;;
22881;SDS011;11608;50.894;5.296;2023-09-30T04:02:47;32.30;;;29.00;;
22881;SDS011;11608;50.894;5.296;2023-09-30T04:05:14;32.00;;;28.75;;
22881;SDS011;11608;50.894;5.296;2023-09-30T04:07:42;28.80;;;26.30;;
22881;SDS011;11608;50.894;5.296;2023-09-30T04:10:09;32.33;;;29.00;;
22881;SDS011;11608;50.894;5.296;2023-09-30T04:12:35;29.38;;;26.75;;
22881;SDS011;11608;50.894;5.296;2023-09-30T04:15:02;30.42;;;27.38;;
22881;SDS011;11608;50.894;5.296;2023-09-30T04:17:31;30.02;;;27.38;;
22881;SDS011;11608;50.894;5.296;2023-09-30T04:19:58;29.20;;;26.50;;
22881;SDS011;11608;50.894;5.296;2023-09-30T04:22:24;29.05;;;26.55;;
22881;SDS011;11608;50.894;5.296;2023-09-30T04:24:53;27.90;;;25.50;;
22881;SDS011;11608;50.894;5.296;2023-09-30T04:27:19;28.15;;;25.75;;
22881;SDS011;11608;50.894;5.296;2023-09-30T04:29:46;28.80;;;26.08;;
22881;SDS011;11608;50.894;5.296;2023-09-30T04:32:14;29.05;;;26.00;;
22881;SDS011;11608;50.894;5.296;2023-09-30T04:34:40;28.38;;;25.48;;
22881;SDS011;11608;50.894;5.296;2023-09-30T04:37:06;28.48;;;26.10;;
22881;SDS011;11608;50.894;5.296;2023-09-30T04:39:34;28.27;;;25.73;;
22881;SDS011;11608;50.894;5.296;2023-09-30T04:42:00;27.48;;;25.27;;
22881;SDS011;11608;50.894;5.296;2023-09-30T04:44:26;26.90;;;24.80;;
22881;SDS011;11608;50.894;5.296;2023-09-30T04:46:56;28.50;;;26.05;;
22881;SDS011;11608;50.894;5.296;2023-09-30T04:49:22;30.27;;;27.38;;
22881;SDS011;11608;50.894;5.296;2023-09-30T04:51:48;30.08;;;27.27;;
22881;SDS011;11608;50.894;5.296;2023-09-30T04:54:14;28.05;;;25.65;;
22881;SDS011;11608;50.894;5.296;2023-09-30T04:56:40;28.58;;;26.10;;
22881;SDS011;11608;50.894;5.296;2023-09-30T04:59:06;29.92;;;26.75;;
22881;SDS011;11608;50.894;5.296;2023-09-30T05:01:32;29.00;;;26.73;;
22881;SDS011;11608;50.894;5.296;2023-09-30T05:03:59;29.25;;;26.67;;
22881;SDS011;11608;50.894;5.296;2023-09-30T05:06:25;29.63;;;26.75;;
22881;SDS011;11608;50.894;5.296;2023-09-30T05:08:51;28.40;;;25.90;;
22881;SDS011;11608;50.894;5.296;2023-09-30T05:11:17;29.60;;;27.30;;
22881;SDS011;11608;50.894;5.296;2023-09-30T05:13:43;30.13;;;27.55;;
22881;SDS011;11608;50.894;5.296;2023-09-30T05:16:10;30.75;;;28.00;;
22881;SDS011;11608;50.894;5.296;2023-09-30T05:18:38;30.67;;;27.77;;
22881;SDS011;11608;50.894;5.296;2023-09-30T05:21:04;31.00;;;28.33;;
22881;SDS011;11608;50.894;5.296;2023-09-30T05:23:31;30.42;;;27.38;;
22881;SDS011;11608;50.894;5.296;2023-09-30T05:25:57;30.58;;;27.88;;
22881;SDS011;11608;50.894;5.296;2023-09-30T05:28:24;31.20;;;28.30;;
22881;SDS011;11608;50.894;5.296;2023-09-30T05:30:50;30.30;;;27.73;;
22881;SDS011;11608;50.894;5.296;2023-09-30T05:33:16;30.42;;;27.88;;
22881;SDS011;11608;50.894;5.296;2023-09-30T05:35:42;31.83;;;28.73;;
22881;SDS011;11608;50.894;5.296;2023-09-30T05:38:08;28.73;;;26.08;;
22881;SDS011;11608;50.894;5.296;2023-09-30T05:40:35;29.63;;;27.10;;
22881;SDS011;11608;50.894;5.296;2023-09-30T05:43:01;28.75;;;26.10;;
22881;SDS011;11608;50.894;5.296;2023-09-30T05:45:30;26.90;;;24.50;;
22881;SDS011;11608;50.894;5.296;2023-09-30T05:47:59;27.38;;;24.80;;
22881;SDS011;11608;50.894;5.296;2023-09-30T05:50:28;27.45;;;24.85;;
22881;SDS011;11608;50.894;5.296;2023-09-30T05:52:54;27.77;;;25.27;;
22881;SDS011;11608;50.894;5.296;2023-09-30T05:55:21;27.17;;;24.83;;
22881;SDS011;11608;50.894;5.296;2023-09-30T05:57:47;28.15;;;25.48;;
22881;SDS011;11608;50.894;5.296;2023-09-30T06:00:19;27.67;;;25.33;;
22881;SDS011;11608;50.894;5.296;2023-09-30T06:02:47;27.30;;;24.60;;
22881;SDS011;11608;50.894;5.296;2023-09-30T06:05:13;26.73;;;24.40;;
22881;SDS011;11608;50.894;5.296;2023-09-30T06:07:41;28.13;;;25.52;;
22881;SDS011;11608;50.894;5.296;2023-09-30T06:10:10;28.30;;;25.70;;
22881;SDS011;11608;50.894;5.296;2023-09-30T06:12:36;27.92;;;25.73;;
22881;SDS011;11608;50.894;5.296;2023-09-30T06:15:02;27.95;;;25.48;;
22881;SDS011;11608;50.894;5.296;2023-09-30T06:17:28;28.75;;;26.15;;
22881;SDS011;11608;50.894;5.296;2023-09-30T06:19:54;27.63;;;25.17;;
22881;SDS011;11608;50.894;5.296;2023-09-30T06:22:20;28.65;;;25.88;;
22881;SDS011;11608;50.894;5.296;2023-09-30T06:24:46;26.85;;;24.63;;
22881;SDS011;11608;50.894;5.296;2023-09-30T06:27:13;30.95;;;27.75;;
22881;SDS011;11608;50.894;5.296;2023-09-30T06:29:39;31.38;;;27.98;;
22881;SDS011;11608;50.894;5.296;2023-09-30T06:32:07;33.30;;;29.90;;
22881;SDS011;11608;50.894;5.296;2023-09-30T06:34:33;36.88;;;31.10;;
22881;SDS011;11608;50.894;5.296;2023-09-30T06:37:00;34.05;;;30.70;;
22881;SDS011;11608;50.894;5.296;2023-09-30T06:39:27;36.35;;;32.75;;
22881;SDS011;11608;50.894;5.296;2023-09-30T06:41:54;35.50;;;31.92;;
22881;SDS011;11608;50.894;5.296;2023-09-30T06:44:20;35.47;;;31.77;;
22881;SDS011;11608;50.894;5.296;2023-09-30T06:46:49;36.03;;;32.35;;
22881;SDS011;11608;50.894;5.296;2023-09-30T06:49:15;36.05;;;32.13;;
22881;SDS011;11608;50.894;5.296;2023-09-30T06:51:41;42.75;;;34.17;;
22881;SDS011;11608;50.894;5.296;2023-09-30T06:54:08;42.83;;;35.17;;
22881;SDS011;11608;50.894;5.296;2023-09-30T06:56:34;60.78;;;34.30;;
22881;SDS011;11608;50.894;5.296;2023-09-30T06:59:00;65.30;;;34.53;;
22881;SDS011;11608;50.894;5.296;2023-09-30T07:01:27;60.92;;;33.55;;
22881;SDS011;11608;50.894;5.296;2023-09-30T07:03:53;46.50;;;33.70;;
22881;SDS011;11608;50.894;5.296;2023-09-30T07:06:23;46.97;;;33.75;;
22881;SDS011;11608;50.894;5.296;2023-09-30T07:08:49;35.78;;;31.48;;
22881;SDS011;11608;50.894;5.296;2023-09-30T07:11:15;60.58;;;33.80;;
22881;SDS011;11608;50.894;5.296;2023-09-30T07:13:41;59.15;;;33.30;;
22881;SDS011;11608;50.894;5.296;2023-09-30T07:16:07;77.32;;;33.47;;
22881;SDS011;11608;50.894;5.296;2023-09-30T07:18:33;66.38;;;32.72;;
22881;SDS011;11608;50.894;5.296;2023-09-30T07:20:59;55.85;;;34.63;;
22881;SDS011;11608;50.894;5.296;2023-09-30T07:23:29;76.57;;;34.38;;
22881;SDS011;11608;50.894;5.296;2023-09-30T07:25:55;69.15;;;35.00;;
22881;SDS011;11608;50.894;5.296;2023-09-30T07:28:22;75.13;;;34.30;;
22881;SDS011;11608;50.894;5.296;2023-09-30T07:30:48;52.53;;;34.40;;
22881;SDS011;11608;50.894;5.296;2023-09-30T07:33:14;56.47;;;33.65;;
22881;SDS011;11608;50.894;5.296;2023-09-30T07:35:40;50.50;;;37.03;;
22881;SDS011;11608;50.894;5.296;2023-09-30T07:38:06;73.88;;;35.70;;
22881;SDS011;11608;50.894;5.296;2023-09-30T07:40:32;64.25;;;36.42;;
22881;SDS011;11608;50.894;5.296;2023-09-30T07:42:58;58.25;;;35.08;;
22881;SDS011;11608;50.894;5.296;2023-09-30T07:45:24;62.35;;;36.28;;
22881;SDS011;11608;50.894;5.296;2023-09-30T07:47:50;56.72;;;35.45;;
22881;SDS011;11608;50.894;5.296;2023-09-30T07:50:16;48.17;;;36.45;;
22881;SDS011;11608;50.894;5.296;2023-09-30T07:52:43;45.38;;;36.60;;
22881;SDS011;11608;50.894;5.296;2023-09-30T07:55:10;65.22;;;36.08;;
22881;SDS011;11608;50.894;5.296;2023-09-30T07:57:36;70.47;;;37.75;;
22881;SDS011;11608;50.894;5.296;2023-09-30T08:00:03;56.50;;;36.28;;
22881;SDS011;11608;50.894;5.296;2023-09-30T08:02:34;80.93;;;37.28;;
22881;SDS011;11608;50.894;5.296;2023-09-30T08:05:01;95.70;;;38.08;;
22881;SDS011;11608;50.894;5.296;2023-09-30T08:07:27;58.90;;;37.80;;
22881;SDS011;11608;50.894;5.296;2023-09-30T08:09:53;70.35;;;37.28;;
22881;SDS011;11608;50.894;5.296;2023-09-30T08:12:19;50.33;;;36.67;;
22881;SDS011;11608;50.894;5.296;2023-09-30T08:14:46;47.72;;;38.25;;
22881;SDS011;11608;50.894;5.296;2023-09-30T08:17:12;47.53;;;38.53;;
22881;SDS011;11608;50.894;5.296;2023-09-30T08:19:38;58.20;;;38.20;;
22881;SDS011;11608;50.894;5.296;2023-09-30T08:22:04;66.25;;;39.35;;
22881;SDS011;11608;50.894;5.296;2023-09-30T08:24:31;49.58;;;39.40;;
22881;SDS011;11608;50.894;5.296;2023-09-30T08:26:57;52.88;;;39.78;;
22881;SDS011;11608;50.894;5.296;2023-09-30T08:29:23;52.08;;;38.78;;
22881;SDS011;11608;50.894;5.296;2023-09-30T08:31:49;48.05;;;38.67;;
22881;SDS011;11608;50.894;5.296;2023-09-30T08:34:16;49.13;;;40.05;;
22881;SDS011;11608;50.894;5.296;2023-09-30T08:36:44;45.30;;;38.83;;
22881;SDS011;11608;50.894;5.296;2023-09-30T08:39:11;44.05;;;39.10;;
22881;SDS011;11608;50.894;5.296;2023-09-30T08:41:37;44.03;;;39.13;;
22881;SDS011;11608;50.894;5.296;2023-09-30T08:44:03;44.95;;;38.78;;
22881;SDS011;11608;50.894;5.296;2023-09-30T08:46:30;40.28;;;36.00;;
22881;SDS011;11608;50.894;5.296;2023-09-30T08:48:57;43.38;;;38.08;;
22881;SDS011;11608;50.894;5.296;2023-09-30T08:51:24;42.30;;;37.67;;
22881;SDS011;11608;50.894;5.296;2023-09-30T08:53:50;42.70;;;37.38;;
22881;SDS011;11608;50.894;5.296;2023-09-30T08:56:17;40.50;;;36.15;;
22881;SDS011;11608;50.894;5.296;2023-09-30T08:58:45;38.05;;;34.20;;
22881;SDS011;11608;50.894;5.296;2023-09-30T09:01:11;38.50;;;34.58;;
22881;SDS011;11608;50.894;5.296;2023-09-30T09:03:38;38.22;;;34.22;;
22881;SDS011;11608;50.894;5.296;2023-09-30T09:06:04;36.42;;;32.72;;
22881;SDS011;11608;50.894;5.296;2023-09-30T09:08:30;36.50;;;32.85;;
22881;SDS011;11608;50.894;5.296;2023-09-30T09:10:58;32.60;;;29.58;;
22881;SDS011;11608;50.894;5.296;2023-09-30T09:13:25;32.72;;;29.85;;
22881;SDS011;11608;50.894;5.296;2023-09-30T09:16:07;32.92;;;29.92;;
22881;SDS011;11608;50.894;5.296;2023-09-30T09:18:33;34.45;;;31.30;;
22881;SDS011;11608;50.894;5.296;2023-09-30T09:23:40;33.83;;;30.73;;
22881;SDS011;11608;50.894;5.296;2023-09-30T09:26:06;35.53;;;31.83;;
22881;SDS011;11608;50.894;5.296;2023-09-30T09:28:36;32.42;;;29.30;;
22881;SDS011;11608;50.894;5.296;2023-09-30T09:31:18;32.83;;;29.90;;
22881;SDS011;11608;50.894;5.296;2023-09-30T09:33:45;33.80;;;30.48;;
22881;SDS011;11608;50.894;5.296;2023-09-30T09:36:11;34.28;;;30.88;;
22881;SDS011;11608;50.894;5.296;2023-09-30T09:38:48;32.95;;;29.88;;
22881;SDS011;11608;50.894;5.296;2023-09-30T09:41:15;35.17;;;31.55;;
22881;SDS011;11608;50.894;5.296;2023-09-30T09:43:41;34.80;;;31.00;;
22881;SDS011;11608;50.894;5.296;2023-09-30T09:46:08;31.98;;;28.70;;
22881;SDS011;11608;50.894;5.296;2023-09-30T09:48:38;31.33;;;28.50;;
22881;SDS011;11608;50.894;5.296;2023-09-30T09:51:04;32.38;;;29.20;;
22881;SDS011;11608;50.894;5.296;2023-09-30T09:53:34;32.55;;;29.58;;
22881;SDS011;11608;50.894;5.296;2023-09-30T09:56:01;31.80;;;29.00;;
22881;SDS011;11608;50.894;5.296;2023-09-30T09:58:28;31.35;;;28.65;;
22881;SDS011;11608;50.894;5.296;2023-09-30T10:00:58;30.42;;;28.00;;
22881;SDS011;11608;50.894;5.296;2023-09-30T10:03:26;32.08;;;29.13;;
22881;SDS011;11608;50.894;5.296;2023-09-30T10:05:52;30.90;;;28.38;;
22881;SDS011;11608;50.894;5.296;2023-09-30T10:08:18;31.73;;;29.02;;
22881;SDS011;11608;50.894;5.296;2023-09-30T10:10:45;30.85;;;28.35;;
22881;SDS011;11608;50.894;5.296;2023-09-30T10:15:56;32.13;;;29.30;;
22881;SDS011;11608;50.894;5.296;2023-09-30T10:18:22;31.58;;;28.95;;
22881;SDS011;11608;50.894;5.296;2023-09-30T10:20:48;31.02;;;28.52;;
22881;SDS011;11608;50.894;5.296;2023-09-30T10:25:46;32.00;;;29.20;;
22881;SDS011;11608;50.894;5.296;2023-09-30T10:28:32;31.38;;;28.88;;
22881;SDS011;11608;50.894;5.296;2023-09-30T10:31:08;31.27;;;28.70;;
22881;SDS011;11608;50.894;5.296;2023-09-30T10:34:12;30.67;;;27.88;;
22881;SDS011;11608;50.894;5.296;2023-09-30T10:36:37;30.38;;;27.65;;
22881;SDS011;11608;50.894;5.296;2023-09-30T10:39:04;30.00;;;27.33;;
22881;SDS011;11608;50.894;5.296;2023-09-30T10:46:52;29.58;;;27.25;;
22881;SDS011;11608;50.894;5.296;2023-09-30T10:51:50;31.08;;;28.55;;
22881;SDS011;11608;50.894;5.296;2023-09-30T10:54:26;31.42;;;28.80;;
22881;SDS011;11608;50.894;5.296;2023-09-30T10:56:53;30.50;;;27.80;;
22881;SDS011;11608;50.894;5.296;2023-09-30T10:59:19;30.17;;;27.55;;
22881;SDS011;11608;50.894;5.296;2023-09-30T11:01:45;29.02;;;26.63;;
22881;SDS011;11608;50.894;5.296;2023-09-30T11:04:11;28.75;;;26.10;;
22881;SDS011;11608;50.894;5.296;2023-09-30T11:06:43;26.92;;;24.83;;
22881;SDS011;11608;50.894;5.296;2023-09-30T11:09:14;30.95;;;28.00;;
22881;SDS011;11608;50.894;5.296;2023-09-30T11:14:18;30.23;;;27.30;;
22881;SDS011;11608;50.894;5.296;2023-09-30T11:16:45;29.98;;;27.17;;
22881;SDS011;11608;50.894;5.296;2023-09-30T11:19:11;31.80;;;28.52;;
22881;SDS011;11608;50.894;5.296;2023-09-30T11:21:41;30.67;;;27.77;;
22881;SDS011;11608;50.894;5.296;2023-09-30T11:24:08;31.23;;;28.52;;
22881;SDS011;11608;50.894;5.296;2023-09-30T11:26:35;30.35;;;27.50;;
22881;SDS011;11608;50.894;5.296;2023-09-30T11:29:14;27.63;;;25.10;;
22881;SDS011;11608;50.894;5.296;2023-09-30T11:31:44;29.75;;;26.80;;
22881;SDS011;11608;50.894;5.296;2023-09-30T11:34:12;27.27;;;24.98;;
22881;SDS011;11608;50.894;5.296;2023-09-30T11:36:39;29.13;;;26.40;;
22881;SDS011;11608;50.894;5.296;2023-09-30T11:39:09;27.10;;;24.70;;
22881;SDS011;11608;50.894;5.296;2023-09-30T11:41:36;29.35;;;26.70;;
22881;SDS011;11608;50.894;5.296;2023-09-30T11:44:09;28.75;;;26.02;;
22881;SDS011;11608;50.894;5.296;2023-09-30T11:46:49;29.60;;;26.80;;
22881;SDS011;11608;50.894;5.296;2023-09-30T11:49:33;26.67;;;24.17;;
22881;SDS011;11608;50.894;5.296;2023-09-30T11:52:00;27.42;;;24.92;;
22881;SDS011;11608;50.894;5.296;2023-09-30T11:57:02;27.83;;;25.42;;
22881;SDS011;11608;50.894;5.296;2023-09-30T11:59:28;26.52;;;24.23;;
22881;SDS011;11608;50.894;5.296;2023-09-30T12:01:57;26.50;;;24.17;;
22881;SDS011;11608;50.894;5.296;2023-09-30T12:04:24;25.73;;;23.42;;
22881;SDS011;11608;50.894;5.296;2023-09-30T12:06:50;25.80;;;23.40;;
22881;SDS011;11608;50.894;5.296;2023-09-30T12:09:17;25.55;;;23.42;;
22881;SDS011;11608;50.894;5.296;2023-09-30T12:11:52;25.05;;;22.95;;
22881;SDS011;11608;50.894;5.296;2023-09-30T12:14:18;23.17;;;21.20;;
22881;SDS011;11608;50.894;5.296;2023-09-30T12:16:45;25.27;;;22.83;;
22881;SDS011;11608;50.894;5.296;2023-09-30T12:19:13;27.08;;;24.77;;
22881;SDS011;11608;50.894;5.296;2023-09-30T12:21:40;25.67;;;23.58;;
22881;SDS011;11608;50.894;5.296;2023-09-30T12:24:06;24.30;;;22.33;;
22881;SDS011;11608;50.894;5.296;2023-09-30T12:26:34;24.50;;;22.33;;
22881;SDS011;11608;50.894;5.296;2023-09-30T12:29:01;24.70;;;22.55;;
22881;SDS011;11608;50.894;5.296;2023-09-30T12:31:28;23.85;;;21.75;;
22881;SDS011;11608;50.894;5.296;2023-09-30T12:33:54;24.73;;;22.52;;
22881;SDS011;11608;50.894;5.296;2023-09-30T12:36:21;23.42;;;21.23;;
22881;SDS011;11608;50.894;5.296;2023-09-30T12:38:47;24.60;;;22.27;;
22881;SDS011;11608;50.894;5.296;2023-09-30T12:41:13;24.27;;;22.13;;
22881;SDS011;11608;50.894;5.296;2023-09-30T12:43:40;24.67;;;22.25;;
22881;SDS011;11608;50.894;5.296;2023-09-30T12:46:08;25.92;;;23.75;;
22881;SDS011;11608;50.894;5.296;2023-09-30T12:48:34;25.15;;;22.70;;
22881;SDS011;11608;50.894;5.296;2023-09-30T12:51:00;23.73;;;21.45;;
22881;SDS011;11608;50.894;5.296;2023-09-30T12:53:29;25.10;;;23.00;;
22881;SDS011;11608;50.894;5.296;2023-09-30T12:55:58;24.95;;;22.45;;
22881;SDS011;11608;50.894;5.296;2023-09-30T12:58:25;30.48;;;27.55;;
22881;SDS011;11608;50.894;5.296;2023-09-30T13:00:53;24.38;;;22.25;;
22881;SDS011;11608;50.894;5.296;2023-09-30T13:03:19;24.23;;;22.08;;
22881;SDS011;11608;50.894;5.296;2023-09-30T13:05:45;25.48;;;23.38;;
22881;SDS011;11608;50.894;5.296;2023-09-30T13:08:11;23.83;;;21.73;;
22881;SDS011;11608;50.894;5.296;2023-09-30T13:10:37;25.30;;;22.70;;
22881;SDS011;11608;50.894;5.296;2023-09-30T13:13:04;32.58;;;26.73;;
22881;SDS011;11608;50.894;5.296;2023-09-30T13:15:30;25.88;;;23.73;;
22881;SDS011;11608;50.894;5.296;2023-09-30T13:17:56;26.98;;;24.27;;
22881;SDS011;11608;50.894;5.296;2023-09-30T13:20:24;24.90;;;22.80;;
22881;SDS011;11608;50.894;5.296;2023-09-30T13:22:50;23.75;;;21.85;;
22881;SDS011;11608;50.894;5.296;2023-09-30T13:25:16;25.13;;;22.83;;
22881;SDS011;11608;50.894;5.296;2023-09-30T13:27:42;25.83;;;23.52;;
22881;SDS011;11608;50.894;5.296;2023-09-30T13:30:08;24.30;;;22.15;;
22881;SDS011;11608;50.894;5.296;2023-09-30T13:32:35;23.85;;;21.80;;
22881;SDS011;11608;50.894;5.296;2023-09-30T13:35:04;23.13;;;21.08;;
22881;SDS011;11608;50.894;5.296;2023-09-30T13:37:33;21.90;;;20.00;;
22881;SDS011;11608;50.894;5.296;2023-09-30T13:40:00;22.40;;;20.30;;
22881;SDS011;11608;50.894;5.296;2023-09-30T13:42:26;24.67;;;22.58;;
22881;SDS011;11608;50.894;5.296;2023-09-30T13:44:53;23.30;;;21.30;;
22881;SDS011;11608;50.894;5.296;2023-09-30T13:47:22;22.90;;;20.88;;
22881;SDS011;11608;50.894;5.296;2023-09-30T13:49:48;22.50;;;20.52;;
22881;SDS011;11608;50.894;5.296;2023-09-30T13:52:17;21.98;;;20.08;;
22881;SDS011;11608;50.894;5.296;2023-09-30T13:54:45;23.42;;;21.35;;
22881;SDS011;11608;50.894;5.296;2023-09-30T13:57:12;24.02;;;21.88;;
22881;SDS011;11608;50.894;5.296;2023-09-30T13:59:39;24.88;;;21.40;;
22881;SDS011;11608;50.894;5.296;2023-09-30T14:02:07;22.40;;;20.48;;
22881;SDS011;11608;50.894;5.296;2023-09-30T14:04:33;24.35;;;22.15;;
22881;SDS011;11608;50.894;5.296;2023-09-30T14:07:02;22.88;;;20.88;;
22881;SDS011;11608;50.894;5.296;2023-09-30T14:09:28;22.17;;;20.08;;
22881;SDS011;11608;50.894;5.296;2023-09-30T14:11:54;23.70;;;21.60;;
22881;SDS011;11608;50.894;5.296;2023-09-30T14:14:21;22.90;;;20.90;;
22881;SDS011;11608;50.894;5.296;2023-09-30T14:16:47;22.40;;;20.52;;
22881;SDS011;11608;50.894;5.296;2023-09-30T14:19:21;22.75;;;20.38;;
22881;SDS011;11608;50.894;5.296;2023-09-30T14:21:54;22.30;;;20.33;;
22881;SDS011;11608;50.894;5.296;2023-09-30T14:24:39;23.00;;;21.00;;
22881;SDS011;11608;50.894;5.296;2023-09-30T14:27:13;22.10;;;20.10;;
22881;SDS011;11608;50.894;5.296;2023-09-30T14:29:42;22.05;;;19.98;;
22881;SDS011;11608;50.894;5.296;2023-09-30T14:32:08;23.83;;;21.80;;
22881;SDS011;11608;50.894;5.296;2023-09-30T14:34:35;22.40;;;20.42;;
22881;SDS011;11608;50.894;5.296;2023-09-30T14:37:04;22.75;;;20.65;;
22881;SDS011;11608;50.894;5.296;2023-09-30T14:39:33;23.05;;;20.83;;
22881;SDS011;11608;50.894;5.296;2023-09-30T14:45:15;22.20;;;20.30;;